Time;durP1;ratioP1;P1;durP2;ratioP2;P2;SDS_P1;SDS_P2;PMS_P1;PMS_P2;Temp;Humidity;BMP_temperature;BMP_pressure;BME280_temperature;BME280_humidity;BME280_pressure;Samples;Min_cycle;Max_cycle;Signal;HPM_P1;HPM_P2
2021/07/19 00:00:55;;;;;;;2.23;1.50;;;;;;;16.97;94.42;96241.22;5011431;28;20452;-75
2021/07/19 00:03:20;;;;;;;2.22;1.50;;;;;;;16.70;97.05;96242.47;5011639;28;20431;-75
2021/07/19 00:05:45;;;;;;;5.90;2.40;;;;;;;16.63;100.00;96243.06;5010080;28;20432;-76
2021/07/19 00:08:11;;;;;;;6.27;2.40;;;;;;;16.63;100.00;96243.06;5010215;28;20412;-77
2021/07/19 00:10:36;;;;;;;4.53;1.80;;;;;;;16.96;95.53;96239.56;5011173;28;20425;-77
2021/07/19 00:13:04;;;;;;;3.90;2.00;;;;;;;16.68;99.05;96243.53;5011254;28;20768;-79
2021/07/19 00:15:30;;;;;;;3.50;2.30;;;;;;;16.68;98.75;96241.75;5010895;28;20483;-77
2021/07/19 00:17:56;;;;;;;6.55;2.40;;;;;;;16.49;100.00;96241.53;5015546;28;20424;-77
2021/07/19 00:20:23;;;;;;;4.33;2.63;;;;;;;16.46;100.00;96233.94;5012555;28;20425;-79
2021/07/19 00:22:49;;;;;;;4.72;2.58;;;;;;;16.49;100.00;96232.88;5011241;28;20416;-77
2021/07/19 00:25:16;;;;;;;10.73;2.45;;;;;;;16.64;100.00;96234.28;5010905;28;20417;-78
2021/07/19 00:27:43;;;;;;;5.18;2.53;;;;;;;16.56;100.00;96227.03;5011015;28;20787;-77
2021/07/19 00:30:14;;;;;;;3.67;2.08;;;;;;;16.53;100.00;96226.44;5010907;28;20810;-77
2021/07/19 00:32:40;;;;;;;3.03;2.38;;;;;;;16.57;100.00;96225.25;5011221;28;20412;-77
2021/07/19 00:35:07;;;;;;;4.70;2.25;;;;;;;16.46;100.00;96228.72;5009758;28;20421;-77
2021/07/19 00:37:32;;;;;;;5.60;2.17;;;;;;;16.60;99.04;96228.44;5013619;28;20424;-77
2021/07/19 00:39:58;;;;;;;5.10;1.95;;;;;;;16.52;98.79;96224.78;5013862;28;20783;-77
2021/07/19 00:42:24;;;;;;;4.20;2.00;;;;;;;16.34;100.00;96229.69;5013613;28;20428;-76
2021/07/19 00:44:49;;;;;;;5.03;2.00;;;;;;;16.31;100.00;96230.75;5013467;28;20930;-76
2021/07/19 00:47:16;;;;;;;2.47;1.67;;;;;;;16.30;100.00;96226.47;5014478;28;20412;-76
2021/07/19 00:49:43;;;;;;;4.68;2.00;;;;;;;16.36;100.00;96228.63;5014619;28;20495;-76
2021/07/19 00:52:08;;;;;;;2.37;1.60;;;;;;;16.49;96.29;96225.84;5014543;28;20928;-76
2021/07/19 00:54:37;;;;;;;3.27;1.60;;;;;;;16.41;96.37;96223.84;5014601;28;20416;-76
2021/07/19 00:57:04;;;;;;;3.05;1.63;;;;;;;16.31;97.01;96225.53;5014194;28;20891;-76
2021/07/19 00:59:32;;;;;;;2.83;1.95;;;;;;;16.33;97.34;96223.63;5014556;28;20960;-76
2021/07/19 01:02:00;;;;;;;3.63;2.05;;;;;;;16.14;100.00;96219.00;5012972;28;20428;-76
2021/07/19 01:04:30;;;;;;;4.50;2.13;;;;;;;16.27;100.00;96216.25;5014468;28;20936;-76
2021/07/19 01:06:58;;;;;;;3.55;2.17;;;;;;;16.16;100.00;96219.72;5012828;28;20709;-76
2021/07/19 01:09:25;;;;;;;6.10;2.25;;;;;;;16.12;100.00;96207.00;5012806;28;20799;-76
2021/07/19 01:11:51;;;;;;;4.65;2.40;;;;;;;16.10;100.00;96216.75;5014187;28;20831;-75
2021/07/19 01:14:16;;;;;;;4.43;2.47;;;;;;;16.17;100.00;96210.94;5012989;28;20825;-76
2021/07/19 01:16:42;;;;;;;4.67;2.20;;;;;;;16.19;100.00;96206.41;5013886;28;20432;-76
2021/07/19 01:19:09;;;;;;;5.97;2.33;;;;;;;16.25;100.00;96212.94;5012862;28;20456;-76
2021/07/19 01:22:08;;;;;;;2.80;2.00;;;;;;;16.18;100.00;96212.59;5014079;28;20435;-76
2021/07/19 01:24:45;;;;;;;3.85;2.00;;;;;;;16.25;100.00;96207.72;5014073;28;20413;-76
2021/07/19 01:27:58;;;;;;;2.80;1.90;;;;;;;16.00;100.00;96205.34;5012464;28;20421;-76
2021/07/19 01:30:28;;;;;;;3.97;2.17;;;;;;;15.99;100.00;96207.16;4977583;28;20424;-76
2021/07/19 01:32:57;;;;;;;3.75;2.13;;;;;;;16.04;100.00;96206.78;5014104;28;20542;-75
2021/07/19 01:35:24;;;;;;;4.38;2.30;;;;;;;16.07;100.00;96207.38;5012219;28;20424;-76
2021/07/19 01:37:50;;;;;;;5.03;2.42;;;;;;;15.82;100.00;96211.03;5013783;28;20425;-76
2021/07/19 01:40:16;;;;;;;7.65;2.50;;;;;;;15.88;100.00;96209.75;5013797;28;20415;-76
2021/07/19 01:42:43;;;;;;;5.50;2.60;;;;;;;15.92;100.00;96201.56;5013707;28;20449;-76
2021/07/19 01:45:09;;;;;;;5.30;2.15;;;;;;;16.08;100.00;96208.19;5013562;28;20409;-76
2021/07/19 01:47:37;;;;;;;3.13;2.10;;;;;;;16.06;96.71;96207.50;5012103;28;20507;-76
2021/07/19 01:50:05;;;;;;;2.20;1.63;;;;;;;15.92;97.78;96200.72;5013551;28;20933;-76
2021/07/19 01:52:31;;;;;;;3.00;1.70;;;;;;;15.75;99.14;96203.78;5013580;28;20437;-76
2021/07/19 01:54:58;;;;;;;4.28;1.88;;;;;;;15.84;97.85;96200.50;5013466;28;20422;-76
2021/07/19 01:57:24;;;;;;;3.42;2.10;;;;;;;15.67;99.59;96200.00;5011955;28;20452;-76
2021/07/19 01:59:50;;;;;;;3.35;1.88;;;;;;;15.76;97.11;96208.06;5012028;28;20429;-76
2021/07/19 02:02:19;;;;;;;4.35;2.10;;;;;;;15.59;99.33;96212.78;5014524;28;20941;-76
2021/07/19 02:04:46;;;;;;;3.10;1.90;;;;;;;15.70;97.00;96209.38;5014157;28;20443;-76
2021/07/19 02:07:13;;;;;;;9.40;2.55;;;;;;;15.68;96.84;96206.91;5013479;28;20495;-76
2021/07/19 02:09:39;;;;;;;3.10;2.20;;;;;;;15.47;99.29;96200.66;5013203;28;20452;-76
2021/07/19 02:12:07;;;;;;;5.00;2.33;;;;;;;15.47;100.00;96203.25;5013304;28;20518;-76
2021/07/19 02:14:33;;;;;;;3.50;2.13;;;;;;;15.43;100.00;96196.63;5012088;28;20424;-76
2021/07/19 02:17:00;;;;;;;7.05;2.63;;;;;;;15.72;96.98;96199.63;5012955;28;20483;-76
2021/07/19 02:19:28;;;;;;;3.95;2.53;;;;;;;15.56;99.47;96199.13;5011820;28;20416;-76
2021/07/19 02:21:55;;;;;;;6.10;2.55;;;;;;;15.25;100.00;96202.25;5013345;28;20573;-76
2021/07/19 02:24:26;;;;;;;5.78;3.10;;;;;;;15.49;99.76;96202.19;5012078;28;20475;-76
2021/07/19 02:26:51;;;;;;;3.85;2.20;;;;;;;15.31;100.00;96207.94;5013182;28;20524;-76
2021/07/19 02:29:18;;;;;;;2.85;2.28;;;;;;;15.24;100.00;96215.44;5012013;28;20429;-76
2021/07/19 02:31:47;;;;;;;5.38;2.63;;;;;;;15.15;100.00;96213.47;5013130;28;20471;-76
2021/07/19 02:34:12;;;;;;;3.33;2.10;;;;;;;15.10;100.00;96213.84;5013012;28;20881;-76
2021/07/19 02:36:38;;;;;;;3.20;2.17;;;;;;;15.17;100.00;96211.59;5012655;28;20524;-76
2021/07/19 02:39:06;;;;;;;6.75;2.30;;;;;;;15.14;100.00;96209.22;5012976;28;20432;-76
2021/07/19 02:41:32;;;;;;;5.32;2.40;;;;;;;15.02;100.00;96210.97;5011541;28;20421;-76
2021/07/19 02:44:02;;;;;;;3.97;2.33;;;;;;;15.07;100.00;96219.28;5012687;28;20480;-76
2021/07/19 02:46:29;;;;;;;5.30;2.17;;;;;;;15.04;100.00;96213.44;5011215;28;20508;-76
2021/07/19 02:48:57;;;;;;;4.25;2.20;;;;;;;15.04;100.00;96214.28;5012522;28;20417;-76
2021/07/19 02:51:24;;;;;;;7.93;2.70;;;;;;;15.08;100.00;96207.88;5012561;28;20504;-76
2021/07/19 02:53:52;;;;;;;4.03;2.58;;;;;;;15.15;100.00;96211.69;5012402;28;20416;-76
2021/07/19 02:56:20;;;;;;;2.65;2.22;;;;;;;15.16;100.00;96215.97;5012268;28;20472;-76
2021/07/19 02:58:46;;;;;;;3.58;2.80;;;;;;;15.24;100.00;96203.22;5012037;28;21001;-76
2021/07/19 03:01:15;;;;;;;5.82;2.70;;;;;;;15.28;100.00;96208.19;5012267;28;20417;-76
2021/07/19 03:03:42;;;;;;;5.07;2.80;;;;;;;15.31;100.00;96207.94;5012086;28;20759;-76
2021/07/19 03:06:11;;;;;;;6.32;2.67;;;;;;;15.33;100.00;96206.06;5012566;28;20564;-76
2021/07/19 03:08:38;;;;;;;5.07;2.73;;;;;;;15.36;100.00;96205.84;5014191;28;20413;-76
2021/07/19 03:11:06;;;;;;;4.57;2.75;;;;;;;15.39;100.00;96205.63;5013999;28;20517;-76
2021/07/19 03:13:35;;;;;;;3.47;2.65;;;;;;;15.40;100.00;96204.66;5015764;28;20424;-76
2021/07/19 03:16:01;;;;;;;6.10;2.63;;;;;;;15.37;100.00;96203.09;5018842;28;20476;-76
2021/07/19 03:18:27;;;;;;;3.45;2.55;;;;;;;15.36;100.00;96198.84;5016491;28;20425;-76
2021/07/19 03:20:55;;;;;;;5.63;2.60;;;;;;;15.38;100.00;96202.16;5016764;28;20495;-76
2021/07/19 03:23:24;;;;;;;4.75;2.20;;;;;;;15.38;100.00;96199.53;5013742;28;20413;-76
2021/07/19 03:25:50;;;;;;;4.00;2.60;;;;;;;15.47;100.00;96198.88;5014221;28;20413;-76
2021/07/19 03:28:19;;;;;;;3.50;2.60;;;;;;;15.45;100.00;96187.69;5014021;28;20424;-76
2021/07/19 03:30:48;;;;;;;5.63;2.42;;;;;;;15.43;100.00;96191.41;5014582;28;20429;-76
2021/07/19 03:33:14;;;;;;;3.58;2.28;;;;;;;15.41;100.00;96188.06;5011706;28;20452;-76
2021/07/19 03:35:40;;;;;;;3.55;2.40;;;;;;;15.36;100.00;96188.41;5012180;28;20948;-76
2021/07/19 03:38:06;;;;;;;3.90;2.67;;;;;;;15.39;100.00;96184.75;5011939;28;20425;-76
2021/07/19 03:40:32;;;;;;;4.93;2.88;;;;;;;15.37;100.00;96189.22;5012012;28;20504;-76
2021/07/19 03:43:00;;;;;;;5.47;2.47;;;;;;;15.47;100.00;96190.22;5004246;28;20845;-76
2021/07/19 03:45:27;;;;;;;3.40;1.80;;;;;;;15.40;100.00;96189.00;5010167;28;20428;-76
2021/07/19 03:47:55;;;;;;;4.43;2.20;;;;;;;15.29;100.00;96191.59;5006018;28;20420;-76
2021/07/19 03:50:21;;;;;;;3.35;1.52;;;;;;;15.22;97.17;96194.66;5011468;28;20902;-76
2021/07/19 03:52:47;;;;;;;2.63;1.52;;;;;;;15.28;94.23;96193.38;5010809;28;20420;-76
2021/07/19 03:55:15;;;;;;;3.40;1.63;;;;;;;15.10;93.50;96192.97;5010057;28;20842;-75
2021/07/19 03:57:41;;;;;;;4.20;1.90;;;;;;;14.99;95.34;96190.31;5011249;28;20431;-76
2021/07/19 04:00:10;;;;;;;3.45;2.00;;;;;;;14.71;97.73;96192.31;5011185;28;20416;-76
2021/07/19 04:02:36;;;;;;;12.10;2.43;;;;;;;14.69;98.46;96190.78;5011534;28;20490;-76
2021/07/19 04:05:07;;;;;;;3.87;2.23;;;;;;;14.55;100.00;96196.97;5011385;28;20416;-76
2021/07/19 04:07:36;;;;;;;2.90;2.42;;;;;;;14.48;100.00;96195.72;5010419;28;20507;-76
2021/07/19 04:10:03;;;;;;;5.53;2.70;;;;;;;14.54;100.00;96195.31;5012511;28;20424;-76
2021/07/19 04:12:29;;;;;;;4.28;2.50;;;;;;;14.69;100.00;96194.22;5012889;28;20425;-76
2021/07/19 04:14:55;;;;;;;4.57;2.40;;;;;;;14.64;100.00;96192.88;5013616;28;20484;-77
2021/07/19 04:17:20;;;;;;;4.60;2.30;;;;;;;14.67;100.00;96196.09;5012394;28;20911;-76
2021/07/19 04:19:46;;;;;;;4.47;2.73;;;;;;;14.82;100.00;96199.34;5012415;28;20424;-76
2021/07/19 04:22:13;;;;;;;4.33;2.43;;;;;;;14.98;100.00;96197.31;5012903;28;20416;-76
2021/07/19 04:24:39;;;;;;;4.70;2.60;;;;;;;14.99;100.00;96198.97;5013117;28;20499;-75
2021/07/19 04:27:05;;;;;;;4.00;2.40;;;;;;;15.03;100.00;96207.41;5012012;28;20532;-76
2021/07/19 04:29:33;;;;;;;9.07;2.90;;;;;;;14.82;100.00;96198.53;5021276;28;20448;-76
2021/07/19 04:32:00;;;;;;;3.13;2.45;;;;;;;14.82;100.00;96199.34;5021234;28;20499;-76
2021/07/19 04:34:27;;;;;;;3.53;2.88;;;;;;;14.76;100.00;96200.66;5014807;28;20469;-75
2021/07/19 04:36:57;;;;;;;7.45;3.40;;;;;;;15.19;100.00;96201.88;5005334;28;20425;-75
2021/07/19 04:39:24;;;;;;;7.55;3.60;;;;;;;15.04;100.00;96206.44;5011205;28;20411;-74
2021/07/19 04:41:49;;;;;;;8.63;3.10;;;;;;;15.11;100.00;96201.63;5002365;28;20772;-74
2021/07/19 04:44:14;;;;;;;6.18;3.10;;;;;;;15.20;100.00;96204.38;5005756;28;20423;-74
2021/07/19 04:46:40;;;;;;;4.88;2.90;;;;;;;15.08;100.00;96199.22;5001469;28;20424;-75
2021/07/19 04:49:07;;;;;;;5.97;3.20;;;;;;;15.16;100.00;96202.09;5003290;28;20842;-76
2021/07/19 04:51:32;;;;;;;6.55;3.05;;;;;;;15.04;100.00;96206.44;5005527;28;20422;-76
2021/07/19 04:53:59;;;;;;;7.28;3.55;;;;;;;15.15;100.00;96203.88;5001390;28;20797;-76
2021/07/19 04:56:28;;;;;;;4.45;3.35;;;;;;;15.33;100.00;96198.25;5001837;28;20936;-76
2021/07/19 04:58:56;;;;;;;8.80;3.47;;;;;;;15.30;100.00;96201.91;5000665;28;20432;-76
2021/07/19 05:01:23;;;;;;;4.20;2.95;;;;;;;15.45;100.00;96195.53;4998197;28;20766;-75
2021/07/19 05:03:50;;;;;;;5.10;2.95;;;;;;;15.69;100.00;96194.66;5002890;28;20420;-76
2021/07/19 05:06:17;;;;;;;4.35;3.03;;;;;;;15.93;100.00;96199.78;5004303;28;20424;-76
2021/07/19 05:08:46;;;;;;;3.53;2.60;;;;;;;16.09;100.00;96195.03;5006234;28;20448;-76
2021/07/19 05:11:12;;;;;;;6.38;2.92;;;;;;;16.13;100.00;96199.06;5013940;28;20487;-75
2021/07/19 05:13:41;;;;;;;3.92;2.97;;;;;;;15.97;100.00;96198.59;5006033;28;20507;-76
2021/07/19 05:16:06;;;;;;;4.50;3.10;;;;;;;15.94;100.00;96198.81;5010046;28;20467;-75
2021/07/19 05:18:32;;;;;;;4.25;2.97;;;;;;;15.82;100.00;96212.81;5010410;28;20436;-76
2021/07/19 05:20:58;;;;;;;5.80;2.88;;;;;;;15.81;100.00;96206.78;5010414;28;20416;-77
2021/07/19 05:23:25;;;;;;;5.75;2.75;;;;;;;15.97;100.00;96199.41;5012805;28;20491;-76
2021/07/19 05:25:51;;;;;;;6.30;2.92;;;;;;;16.16;100.00;96203.19;5013856;28;20417;-76
2021/07/19 05:28:17;;;;;;;7.05;2.97;;;;;;;16.31;100.00;96204.59;5012796;28;20423;-76
2021/07/19 05:30:46;;;;;;;3.83;3.07;;;;;;;16.59;100.00;96198.03;5013869;28;20886;-76
2021/07/19 05:33:13;;;;;;;5.40;3.45;;;;;;;16.85;100.00;96201.19;5012729;28;20425;-75
2021/07/19 05:35:38;;;;;;;5.03;3.17;;;;;;;17.17;100.00;96201.19;5013604;28;20821;-75
2021/07/19 05:38:04;;;;;;;3.43;2.63;;;;;;;17.45;100.00;96209.38;5013602;28;20507;-76
2021/07/19 05:40:31;;;;;;;4.00;3.00;;;;;;;17.60;100.00;96196.78;5012194;28;20523;-75
2021/07/19 05:42:56;;;;;;;5.95;3.33;;;;;;;17.64;100.00;96204.25;5012525;28;20435;-76
2021/07/19 05:45:22;;;;;;;6.50;3.23;;;;;;;17.73;100.00;96193.97;5014571;28;20420;-76
2021/07/19 05:47:49;;;;;;;4.25;3.03;;;;;;;17.85;100.00;96200.81;5013771;28;20415;-76
2021/07/19 05:50:14;;;;;;;4.82;3.20;;;;;;;17.81;97.55;96197.63;5014124;28;20423;-78
2021/07/19 05:52:40;;;;;;;5.85;3.28;;;;;;;17.81;97.69;96200.25;5019396;28;20440;-76
2021/07/19 05:55:07;;;;;;;6.57;3.20;;;;;;;17.97;99.40;96196.31;5013099;28;20462;-76
2021/07/19 05:57:32;;;;;;;28.25;11.90;;;;;;;18.11;100.00;96196.78;5013471;28;20429;-76
2021/07/19 05:59:58;;;;;;;18.53;4.83;;;;;;;18.28;100.00;96197.97;5013185;28;20793;-76
2021/07/19 06:02:24;;;;;;;12.10;3.93;;;;;;;18.37;96.79;96196.31;5013407;28;20416;-75
2021/07/19 06:04:50;;;;;;;5.37;3.23;;;;;;;18.35;96.47;96201.72;5013561;28;20417;-74
2021/07/19 06:07:16;;;;;;;5.38;3.00;;;;;;;18.11;97.77;96201.22;5013176;28;20420;-73
2021/07/19 06:09:42;;;;;;;17.80;3.40;;;;;;;18.10;97.82;96200.38;5013058;28;20413;-73
2021/07/19 06:12:07;;;;;;;8.90;2.90;;;;;;;18.24;96.85;96200.97;5020521;28;20432;-74
2021/07/19 06:14:33;;;;;;;7.83;3.10;;;;;;;18.31;96.52;96197.66;5029217;28;20536;-74
2021/07/19 06:16:58;;;;;;;6.78;2.90;;;;;;;18.49;96.40;96200.50;5027978;28;20421;-74
2021/07/19 06:19:23;;;;;;;8.60;3.90;;;;;;;18.80;96.83;96198.66;5021118;28;20424;-73
2021/07/19 06:21:50;;;;;;;6.40;2.73;;;;;;;18.88;94.29;96199.78;5013739;28;20463;-73
2021/07/19 06:24:16;;;;;;;8.02;2.97;;;;;;;18.90;94.04;96197.81;5014155;28;20424;-75
2021/07/19 06:26:41;;;;;;;6.07;2.75;;;;;;;19.07;94.15;96197.97;5012842;28;20499;-73
2021/07/19 06:29:07;;;;;;;7.80;3.57;;;;;;;19.43;96.23;96194.75;5015042;28;20830;-74
2021/07/19 06:31:32;;;;;;;9.77;3.33;;;;;;;19.67;91.55;96192.53;5013230;28;20408;-74
2021/07/19 06:33:58;;;;;;;5.97;3.47;;;;;;;19.68;89.39;96190.75;5012291;28;20409;-74
2021/07/19 06:36:23;;;;;;;7.85;3.40;;;;;;;19.80;90.25;96189.59;5011390;28;20413;-74
2021/07/19 06:38:50;;;;;;;5.57;3.25;;;;;;;20.13;89.93;96195.28;5013284;28;20794;-76
2021/07/19 06:41:16;;;;;;;10.00;3.63;;;;;;;20.28;86.70;96185.94;5012860;28;20412;-77
2021/07/19 06:43:41;;;;;;;6.33;3.10;;;;;;;20.23;86.14;96190.81;5011885;28;20487;-77
2021/07/19 06:46:06;;;;;;;7.20;2.90;;;;;;;20.27;85.88;96179.84;5012611;28;20416;-76
2021/07/19 06:48:32;;;;;;;7.10;3.50;;;;;;;19.96;88.09;96181.94;5012979;28;20471;-74
2021/07/19 06:50:58;;;;;;;6.87;3.33;;;;;;;20.20;87.67;96185.84;5011625;28;20500;-74
2021/07/19 06:53:23;;;;;;;5.43;2.87;;;;;;;20.71;90.48;96181.88;5011847;28;20478;-74
2021/07/19 06:55:50;;;;;;;7.82;3.15;;;;;;;21.07;89.09;96182.72;5011308;28;20994;-74
2021/07/19 06:58:15;;;;;;;3.38;2.70;;;;;;;21.38;85.27;96182.34;5011759;28;20448;-75
2021/07/19 07:00:41;;;;;;;6.43;3.30;;;;;;;21.14;79.38;96178.50;5012303;28;20425;-74
2021/07/19 07:03:06;;;;;;;5.75;3.10;;;;;;;21.54;82.72;96178.97;5012514;28;20423;-74
2021/07/19 07:05:31;;;;;;;8.73;3.33;;;;;;;21.83;80.67;96174.22;5012346;28;20415;-74
2021/07/19 07:07:57;;;;;;;5.67;3.27;;;;;;;22.25;79.48;96173.50;5012783;28;20408;-75
2021/07/19 07:10:22;;;;;;;9.70;3.10;;;;;;;22.18;74.19;96175.13;5025117;28;20411;-74
2021/07/19 07:12:49;;;;;;;3.87;2.83;;;;;;;22.34;73.99;96172.53;5031754;28;20421;-75
2021/07/19 07:15:15;;;;;;;7.50;3.33;;;;;;;22.60;74.07;96169.81;5033299;28;20497;-74
2021/07/19 07:17:41;;;;;;;3.73;2.90;;;;;;;22.67;72.69;96175.28;5032334;28;20521;-74
2021/07/19 07:20:08;;;;;;;6.95;3.10;;;;;;;22.76;71.24;96181.38;5032000;28;20415;-74
2021/07/19 07:22:33;;;;;;;4.78;2.85;;;;;;;23.18;74.37;96173.41;5032866;28;20827;-76
2021/07/19 07:24:59;;;;;;;4.43;2.77;;;;;;;23.20;72.24;96179.34;5030605;28;20454;-79
2021/07/19 07:27:24;;;;;;;6.05;3.28;;;;;;;23.28;69.54;96176.69;5030667;28;20430;-76
2021/07/19 07:29:51;;;;;;;7.23;2.70;;;;;;;22.73;72.11;96177.28;5031862;28;20434;-76
2021/07/19 07:32:17;;;;;;;5.23;3.03;;;;;;;23.12;70.48;96176.69;5032036;28;20490;-75
2021/07/19 07:34:42;;;;;;;4.67;3.10;;;;;;;23.13;69.63;96173.06;5032320;28;20422;-77
2021/07/19 07:37:08;;;;;;;4.13;2.97;;;;;;;23.26;70.93;96178.69;5032162;28;20852;-76
2021/07/19 07:39:34;;;;;;;5.78;3.25;;;;;;;23.36;69.51;96182.00;5031611;28;20418;-76
2021/07/19 07:42:00;;;;;;;3.75;2.95;;;;;;;23.35;69.28;96182.97;5024663;28;20421;-78
2021/07/19 07:44:25;;;;;;;11.30;3.10;;;;;;;23.56;68.71;96173.72;5011488;28;20984;-76
2021/07/19 07:46:52;;;;;;;4.82;3.03;;;;;;;23.51;69.57;96179.50;5011754;28;20822;-76
2021/07/19 07:49:20;;;;;;;6.28;3.00;;;;;;;23.59;69.42;96170.75;5010712;28;20468;-75
2021/07/19 07:51:46;;;;;;;7.03;2.80;;;;;;;23.15;68.13;96176.38;5010457;28;20431;-73
2021/07/19 07:54:11;;;;;;;7.70;3.35;;;;;;;22.59;71.02;96175.25;5011574;28;20507;-74
2021/07/19 07:56:37;;;;;;;4.43;2.80;;;;;;;23.07;70.53;96174.56;5012593;28;20436;-75
2021/07/19 07:59:02;;;;;;;4.32;2.78;;;;;;;23.21;72.25;96180.97;5015200;28;20479;-75
2021/07/19 08:01:28;;;;;;;7.50;3.13;;;;;;;23.25;72.72;96174.41;5012483;28;20428;-72
2021/07/19 08:03:54;;;;;;;6.20;3.23;;;;;;;23.54;67.47;96176.50;5010292;28;20503;-73
2021/07/19 08:06:20;;;;;;;5.50;3.10;;;;;;;23.93;67.32;96162.59;5011123;28;20446;-73
2021/07/19 08:08:45;;;;;;;4.37;2.90;;;;;;;24.01;71.24;96164.41;5011518;28;20544;-73
2021/07/19 08:11:11;;;;;;;7.90;3.17;;;;;;;24.26;68.45;96160.69;5028892;28;20419;-75
2021/07/19 08:13:36;;;;;;;6.43;3.10;;;;;;;24.47;65.55;96160.09;5031057;28;20450;-73
2021/07/19 08:16:02;;;;;;;8.53;3.03;;;;;;;24.31;63.97;96158.31;5030867;28;20453;-73
2021/07/19 08:18:27;;;;;;;4.60;3.08;;;;;;;23.27;65.36;96159.19;5031070;28;21294;-73
2021/07/19 08:20:54;;;;;;;16.73;3.28;;;;;;;23.60;68.16;96167.94;5030927;28;20924;-73
2021/07/19 08:23:19;;;;;;;4.32;3.10;;;;;;;24.15;69.79;96158.41;5031100;28;20489;-73
2021/07/19 08:25:45;;;;;;;5.53;3.50;;;;;;;24.36;67.31;96166.59;5030780;28;20465;-73
2021/07/19 08:28:12;;;;;;;7.55;2.90;;;;;;;24.58;67.39;96159.75;5030997;28;20411;-72
2021/07/19 08:30:37;;;;;;;7.00;3.50;;;;;;;24.38;63.25;96169.06;5030760;28;20514;-74
2021/07/19 08:33:03;;;;;;;5.10;3.10;;;;;;;24.33;65.39;96163.47;5030829;28;20501;-74
2021/07/19 08:35:28;;;;;;;7.18;3.33;;;;;;;24.28;66.79;96163.13;5030501;28;20415;-72
2021/07/19 08:37:58;;;;;;;7.47;3.20;;;;;;;24.76;68.31;96161.28;5030832;28;20422;-73
2021/07/19 08:40:25;;;;;;;4.28;3.35;;;;;;;23.39;67.82;96154.38;5030333;28;20411;-73
2021/07/19 08:42:51;;;;;;;6.82;3.30;;;;;;;23.72;65.68;96157.03;5030646;28;20438;-73
2021/07/19 08:45:17;;;;;;;4.67;3.10;;;;;;;24.38;70.73;96158.47;5029344;28;20419;-74
2021/07/19 08:47:46;;;;;;;10.10;3.50;;;;;;;24.29;64.17;96159.50;5029472;28;20457;-72
2021/07/19 08:50:13;;;;;;;5.90;3.35;;;;;;;23.90;63.41;96162.94;5030652;28;20419;-73
2021/07/19 08:52:39;;;;;;;6.15;3.22;;;;;;;24.27;63.22;96172.09;5030642;28;20446;-72
2021/07/19 08:55:09;;;;;;;5.65;3.28;;;;;;;24.18;62.20;96160.72;5030664;28;20418;-75
2021/07/19 08:57:36;;;;;;;5.78;3.20;;;;;;;24.65;67.45;96164.31;5033229;28;20514;-73
2021/07/19 09:00:05;;;;;;;6.57;3.33;;;;;;;24.26;63.64;96159.84;5034433;28;20414;-73
2021/07/19 09:02:31;;;;;;;4.72;2.80;;;;;;;24.24;69.46;96161.84;5034352;28;20419;-73
2021/07/19 09:04:57;;;;;;;8.10;3.35;;;;;;;24.88;64.46;96154.56;5034465;28;20443;-73
2021/07/19 09:07:23;;;;;;;5.57;3.53;;;;;;;25.23;64.44;96157.66;5034190;28;20446;-75
2021/07/19 09:09:50;;;;;;;6.32;3.17;;;;;;;25.31;61.78;96161.06;5029039;28;20415;-73
2021/07/19 09:12:17;;;;;;;6.55;3.60;;;;;;;25.23;63.50;96153.19;5034715;28;20414;-73
2021/07/19 09:14:47;;;;;;;8.00;3.67;;;;;;;25.10;66.17;96155.59;5044129;28;20845;-74
2021/07/19 09:17:21;;;;;;;6.03;3.10;;;;;;;25.38;63.49;96152.41;5039107;28;20430;-72
2021/07/19 09:19:47;;;;;;;5.47;3.03;;;;;;;25.41;62.46;96144.09;5021492;28;20503;-74
2021/07/19 09:22:12;;;;;;;4.27;3.33;;;;;;;25.61;63.57;96147.88;5017626;28;20915;-73
2021/07/19 09:24:38;;;;;;;6.28;2.95;;;;;;;24.43;60.92;96147.38;5015008;28;20442;-73
2021/07/19 09:27:05;;;;;;;6.07;2.92;;;;;;;24.03;62.21;96146.53;5014304;28;20412;-73
2021/07/19 09:29:36;;;;;;;7.20;3.28;;;;;;;24.77;64.15;96147.03;5014370;28;20416;-73
2021/07/19 09:32:02;;;;;;;6.85;3.28;;;;;;;24.87;66.93;96151.09;5014148;28;20895;-72
2021/07/19 09:34:29;;;;;;;5.22;3.25;;;;;;;25.29;63.08;96146.38;5014140;28;20426;-72
2021/07/19 09:37:00;;;;;;;7.87;3.40;;;;;;;25.59;61.60;96147.25;5013835;28;20474;-72
2021/07/19 09:39:26;;;;;;;7.35;2.90;;;;;;;25.75;61.47;96143.59;5017646;28;20423;-72
2021/07/19 09:42:03;;;;;;;4.32;3.13;;;;;;;25.51;60.96;96139.34;5033742;28;20828;-72
2021/07/19 09:44:28;;;;;;;5.30;2.80;;;;;;;25.61;57.57;96142.56;5033843;28;20563;-73
2021/07/19 09:47:00;;;;;;;4.37;2.57;;;;;;;25.81;59.72;96141.09;5033471;28;20889;-73
2021/07/19 09:49:27;;;;;;;6.88;3.00;;;;;;;25.83;55.91;96143.53;5033721;28;20427;-72
2021/07/19 09:51:57;;;;;;;4.32;3.00;;;;;;;26.02;58.57;96139.53;5033243;28;20808;-73
2021/07/19 09:54:32;;;;;;;6.13;2.95;;;;;;;25.96;57.43;96137.63;5033137;28;20426;-72
2021/07/19 09:57:01;;;;;;;3.83;2.55;;;;;;;26.20;55.69;96139.97;5033201;28;20517;-72
2021/07/19 09:59:27;;;;;;;4.65;3.00;;;;;;;26.32;57.83;96135.00;5019479;28;20496;-72
2021/07/19 10:01:52;;;;;;;7.15;3.00;;;;;;;26.43;54.55;96139.84;5013419;28;20507;-72
2021/07/19 10:04:20;;;;;;;7.17;2.90;;;;;;;26.22;53.18;96137.16;5013561;28;20756;-72
2021/07/19 10:06:47;;;;;;;4.50;2.50;;;;;;;25.82;51.81;96121.50;5013226;28;20452;-72
2021/07/19 10:09:14;;;;;;;4.30;2.30;;;;;;;26.40;55.43;96129.63;5013745;28;20428;-72
2021/07/19 10:11:42;;;;;;;3.97;2.83;;;;;;;26.32;56.16;96127.03;5033099;28;20440;-72
2021/07/19 10:14:09;;;;;;;4.72;2.50;;;;;;;26.44;57.24;96125.56;5033190;28;20502;-71
2021/07/19 10:16:35;;;;;;;5.47;2.67;;;;;;;26.75;57.89;96122.66;5032759;28;20452;-73
2021/07/19 10:19:02;;;;;;;5.00;2.67;;;;;;;26.84;55.77;96122.53;5032908;28;20445;-72
2021/07/19 10:21:32;;;;;;;6.22;2.90;;;;;;;27.01;53.28;96130.09;5032940;28;20528;-72
2021/07/19 10:23:59;;;;;;;5.83;2.70;;;;;;;26.84;56.68;96120.69;5032778;28;20415;-72
2021/07/19 10:26:25;;;;;;;5.47;2.90;;;;;;;26.85;54.23;96111.75;5032566;28;20421;-72
2021/07/19 10:28:51;;;;;;;7.60;2.80;;;;;;;26.24;50.93;96119.19;5031560;28;20513;-73
2021/07/19 10:31:17;;;;;;;2.70;2.20;;;;;;;26.20;57.24;96124.03;5032954;28;20411;-76
2021/07/19 10:33:45;;;;;;;6.17;3.00;;;;;;;26.15;52.94;96117.66;5033074;28;20481;-76
2021/07/19 10:36:12;;;;;;;4.10;2.75;;;;;;;26.38;59.02;96126.31;5032263;28;20414;-75
2021/07/19 10:38:40;;;;;;;3.78;2.65;;;;;;;26.34;53.04;96109.09;5032860;28;20825;-74
2021/07/19 10:41:07;;;;;;;4.50;2.70;;;;;;;25.91;55.00;96105.47;5031932;28;20435;-72
2021/07/19 10:43:32;;;;;;;3.70;2.50;;;;;;;26.01;53.64;96111.34;4991828;28;20434;-75
2021/07/19 10:46:08;;;;;;;4.68;2.53;;;;;;;26.48;55.46;96112.78;4992730;28;20418;-74
2021/07/19 10:48:33;;;;;;;5.47;2.90;;;;;;;26.04;53.17;96108.31;4992915;28;20828;-74
2021/07/19 10:51:00;;;;;;;5.63;2.70;;;;;;;25.48;55.01;96114.03;4993023;28;20422;-75
2021/07/19 10:53:28;;;;;;;6.63;2.30;;;;;;;25.62;52.64;96099.13;4992658;28;20833;-75
2021/07/19 10:56:01;;;;;;;5.35;2.40;;;;;;;25.74;52.29;96103.00;4992693;28;20414;-74
2021/07/19 10:58:36;;;;;;;6.93;2.35;;;;;;;25.98;51.03;96099.25;4992829;28;20430;-75
2021/07/19 11:01:01;;;;;;;6.43;2.40;;;;;;;26.42;52.59;96101.03;4992583;28;20516;-75
2021/07/19 11:03:37;;;;;;;4.17;2.40;;;;;;;26.06;52.06;96101.81;4992774;28;20510;-75
2021/07/19 11:06:02;;;;;;;7.70;2.30;;;;;;;25.40;53.72;96105.31;5007537;28;20970;-75
2021/07/19 11:08:28;;;;;;;7.13;2.53;;;;;;;24.43;54.29;96102.38;4997098;28;20417;-68
2021/07/19 11:10:55;;;;;;;6.40;2.80;;;;;;;24.82;54.07;96105.78;5013640;28;20412;-75
2021/07/19 11:13:27;;;;;;;5.47;2.50;;;;;;;24.70;54.05;96095.78;5015800;28;20508;-75
2021/07/19 11:15:54;;;;;;;4.28;2.08;;;;;;;25.26;57.35;96094.53;5010982;28;20527;-74
2021/07/19 11:18:29;;;;;;;4.55;2.55;;;;;;;25.33;54.06;96100.75;5012102;28;20427;-76
2021/07/19 11:20:57;;;;;;;3.92;2.20;;;;;;;24.85;55.17;96110.72;5017114;28;20416;-75
2021/07/19 11:23:29;;;;;;;4.80;2.40;;;;;;;24.57;54.59;96105.09;5021415;28;20458;-75
2021/07/19 11:25:55;;;;;;;4.60;2.58;;;;;;;24.79;55.12;96103.47;5021550;28;20429;-75
2021/07/19 11:28:22;;;;;;;7.85;2.53;;;;;;;25.67;56.99;96093.28;5020770;28;20899;-75